createdAt,value
2017-08-11T00:02:17.322Z,15.00
2017-08-11T00:04:45.394Z,15.00
2017-08-11T00:07:13.482Z,14.90
2017-08-11T00:09:41.556Z,15.00
2017-08-11T00:12:09.657Z,14.90
2017-08-11T00:14:37.729Z,14.90
2017-08-11T00:17:05.793Z,15.00
2017-08-11T00:19:33.882Z,15.10
2017-08-11T00:22:01.954Z,15.10
2017-08-11T00:24:30.046Z,15.10
2017-08-11T00:26:58.883Z,15.10
2017-08-11T00:29:26.977Z,15.10
2017-08-11T00:31:55.070Z,15.10
2017-08-11T00:34:23.142Z,15.10
2017-08-11T00:36:51.237Z,15.20
2017-08-11T00:39:20.070Z,15.20
2017-08-11T00:41:48.161Z,15.20
2017-08-11T00:44:16.488Z,15.20
2017-08-11T00:46:44.550Z,15.20
2017-08-11T00:49:13.378Z,15.10
2017-08-11T00:51:41.451Z,15.10
2017-08-11T00:54:10.678Z,15.20
2017-08-11T00:56:38.750Z,15.20
2017-08-11T00:59:07.661Z,15.20
2017-08-11T01:01:36.497Z,15.20
2017-08-11T01:04:04.596Z,15.20
2017-08-11T01:06:32.678Z,15.10
2017-08-11T01:09:00.746Z,15.10
2017-08-11T01:11:28.850Z,15.10
2017-08-11T01:13:56.924Z,15.20
2017-08-11T01:16:25.754Z,15.20
2017-08-11T01:18:53.862Z,15.20
2017-08-11T01:21:21.933Z,15.20
2017-08-11T01:23:50.025Z,15.10
2017-08-11T01:26:18.102Z,15.00
2017-08-11T01:28:46.950Z,14.90
2017-08-11T01:31:15.062Z,14.90
2017-08-11T01:33:43.902Z,14.80
2017-08-11T01:36:12.010Z,14.80
2017-08-11T01:38:40.107Z,14.80
2017-08-11T01:41:08.211Z,15.00
2017-08-11T01:43:36.277Z,15.00
2017-08-11T01:46:04.383Z,14.90
2017-08-11T01:48:32.506Z,14.80
2017-08-11T01:51:00.590Z,14.90
2017-08-11T01:53:28.674Z,14.90
2017-08-11T01:55:56.778Z,14.90
2017-08-11T01:58:24.883Z,14.90
2017-08-11T02:00:52.970Z,14.90
2017-08-11T02:03:21.074Z,14.80
2017-08-11T02:05:49.427Z,14.80
2017-08-11T02:08:17.511Z,14.80
2017-08-11T02:10:45.595Z,14.80
2017-08-11T02:13:13.698Z,14.80
2017-08-11T02:15:41.815Z,14.80
2017-08-11T02:18:09.898Z,14.80
2017-08-11T02:20:37.978Z,14.80
2017-08-11T02:23:06.075Z,14.80
2017-08-11T02:25:34.151Z,14.90
2017-08-11T02:28:03.855Z,14.80
2017-08-11T02:30:31.930Z,14.80
2017-08-11T02:33:00.038Z,14.80
2017-08-11T02:35:28.122Z,14.80
2017-08-11T02:37:56.223Z,14.90
2017-08-11T02:40:24.331Z,14.90
2017-08-11T02:42:52.414Z,14.80
2017-08-11T02:45:21.290Z,14.90
2017-08-11T02:47:49.382Z,14.90
2017-08-11T02:50:18.266Z,14.90
2017-08-11T02:52:47.119Z,14.80
2017-08-11T02:55:15.606Z,14.70
2017-08-11T02:57:43.714Z,14.70
2017-08-11T03:00:12.567Z,14.70
2017-08-11T03:02:40.654Z,14.70
2017-08-11T03:05:08.775Z,14.70
2017-08-11T03:07:36.854Z,14.80
2017-08-11T03:10:04.944Z,14.80
2017-08-11T03:12:33.055Z,14.80
2017-08-11T03:15:01.139Z,14.80
2017-08-11T03:17:29.990Z,14.80
2017-08-11T03:19:58.110Z,14.80
2017-08-11T03:22:26.198Z,14.80
2017-08-11T03:24:54.283Z,14.80
2017-08-11T03:27:22.395Z,14.80
2017-08-11T03:29:50.475Z,14.70
2017-08-11T03:32:18.562Z,14.80
2017-08-11T03:34:47.450Z,14.90
2017-08-11T03:37:16.303Z,14.80
2017-08-11T03:39:44.386Z,14.80
2017-08-11T03:42:12.503Z,14.80
2017-08-11T03:44:41.354Z,14.80
2017-08-11T03:47:09.434Z,14.80
2017-08-11T03:49:37.538Z,14.80
2017-08-11T03:52:05.623Z,14.80
2017-08-11T03:54:33.726Z,14.90
2017-08-11T03:57:01.815Z,14.90
2017-08-11T03:59:29.939Z,14.80
2017-08-11T04:01:58.017Z,14.80
2017-08-11T04:04:26.106Z,14.80
2017-08-11T04:06:54.211Z,14.80
2017-08-11T04:09:22.298Z,14.70
2017-08-11T04:11:50.413Z,14.70
2017-08-11T04:14:18.490Z,14.70
2017-08-11T04:16:46.579Z,14.70
2017-08-11T04:19:14.675Z,14.80
2017-08-11T04:21:42.782Z,14.80
2017-08-11T04:24:11.651Z,14.90
2017-08-11T04:26:40.539Z,14.90
2017-08-11T04:29:08.622Z,15.00
2017-08-11T04:31:37.471Z,14.90
2017-08-11T04:34:05.642Z,14.90
2017-08-11T04:36:33.711Z,14.90
2017-08-11T04:39:01.822Z,14.90
2017-08-11T04:41:30.674Z,14.80
2017-08-11T04:43:58.762Z,14.80
2017-08-11T04:46:26.868Z,14.80
2017-08-11T04:48:55.738Z,14.90
2017-08-11T04:51:23.850Z,14.80
2017-08-11T04:53:51.959Z,14.90
2017-08-11T04:56:20.810Z,14.80
2017-08-11T04:58:48.934Z,14.80
2017-08-11T05:01:17.018Z,14.80
2017-08-11T05:03:45.103Z,14.80
2017-08-11T05:06:13.211Z,14.80
2017-08-11T05:08:41.298Z,14.80
2017-08-11T05:11:09.407Z,14.70
2017-08-11T05:13:37.534Z,14.80
2017-08-11T05:16:05.619Z,14.80
2017-08-11T05:18:33.702Z,14.90
2017-08-11T05:21:01.811Z,14.90
2017-08-11T05:23:30.295Z,14.90
2017-08-11T05:25:59.162Z,14.90
2017-08-11T05:28:27.260Z,14.90
2017-08-11T05:30:56.150Z,14.90
2017-08-11T05:33:25.002Z,14.90
2017-08-11T05:35:53.102Z,14.90
2017-08-11T05:38:22.011Z,15.00
2017-08-11T05:40:50.119Z,14.90
2017-08-11T05:43:18.214Z,14.90
2017-08-11T05:45:46.694Z,14.90
2017-08-11T05:48:14.827Z,14.90
2017-08-11T05:50:42.963Z,14.90
2017-08-11T05:53:11.051Z,14.90
2017-08-11T05:55:39.938Z,14.80
2017-08-11T05:58:08.794Z,14.80
2017-08-11T06:00:36.898Z,14.90
2017-08-11T06:03:05.791Z,14.90
2017-08-11T06:05:34.647Z,14.90
2017-08-11T06:08:02.734Z,14.80
2017-08-11T06:10:30.850Z,14.90
2017-08-11T06:12:58.987Z,14.90
2017-08-11T06:15:27.090Z,14.90
2017-08-11T06:17:55.214Z,14.90
2017-08-11T06:20:23.283Z,14.80
2017-08-11T06:22:51.398Z,14.80
2017-08-11T06:25:20.296Z,14.90
2017-08-11T06:27:48.390Z,14.90
2017-08-11T06:30:16.474Z,14.90
2017-08-11T06:32:44.682Z,14.90
2017-08-11T06:35:12.851Z,14.90
2017-08-11T06:37:41.235Z,14.80
2017-08-11T06:40:10.319Z,14.90
2017-08-11T06:42:38.426Z,15.00
2017-08-11T06:45:07.294Z,15.00
2017-08-11T06:47:35.399Z,15.00
2017-08-11T06:50:04.258Z,15.00
2017-08-11T06:52:32.447Z,15.00
2017-08-11T06:55:00.958Z,15.10
2017-08-11T06:57:29.082Z,15.20
2017-08-11T06:59:57.184Z,15.10
2017-08-11T07:02:26.034Z,15.20
2017-08-11T07:04:54.142Z,15.20
2017-08-11T07:07:22.998Z,15.20
2017-08-11T07:09:51.098Z,15.20
2017-08-11T07:12:19.208Z,15.20
2017-08-11T07:14:48.066Z,15.20
2017-08-11T07:17:16.150Z,15.20
2017-08-11T07:19:45.026Z,15.30
2017-08-11T07:22:13.904Z,15.30
2017-08-11T07:24:41.987Z,15.40
2017-08-11T07:27:10.099Z,15.40
2017-08-11T07:29:38.186Z,15.30
2017-08-11T07:32:06.283Z,15.30
2017-08-11T07:34:34.380Z,15.30
2017-08-11T07:37:02.498Z,15.30
2017-08-11T07:39:30.570Z,15.50
2017-08-11T07:41:58.646Z,15.50
2017-08-11T07:44:26.746Z,15.50
2017-08-11T07:46:54.822Z,15.50
2017-08-11T07:49:22.930Z,15.60
2017-08-11T07:51:51.773Z,15.60
2017-08-11T07:54:19.842Z,15.60
2017-08-11T07:56:47.938Z,15.60
2017-08-11T07:59:16.034Z,15.70
2017-08-11T08:01:44.878Z,15.70
2017-08-11T08:04:13.389Z,15.70
2017-08-11T08:06:41.470Z,15.70
2017-08-11T08:09:09.564Z,15.60
2017-08-11T08:11:38.402Z,15.70
2017-08-11T08:14:06.498Z,15.70
2017-08-11T08:16:34.580Z,15.60
2017-08-11T08:19:02.674Z,15.60
2017-08-11T08:21:30.766Z,15.70
2017-08-11T08:23:58.847Z,15.60
2017-08-11T08:26:26.963Z,15.60
2017-08-11T08:28:55.039Z,15.70
2017-08-11T08:31:23.123Z,15.80
2017-08-11T08:33:51.223Z,15.70
2017-08-11T08:36:19.303Z,15.70
2017-08-11T08:38:47.399Z,15.80
2017-08-11T08:41:15.580Z,15.80
2017-08-11T08:43:43.754Z,15.80
2017-08-11T08:46:11.876Z,15.70
2017-08-11T08:48:40.823Z,15.70
2017-08-11T08:51:08.894Z,15.70
2017-08-11T08:53:36.990Z,15.70
2017-08-11T08:56:05.854Z,15.80
2017-08-11T08:58:33.927Z,15.80
2017-08-11T09:01:02.415Z,15.90
2017-08-11T09:03:30.931Z,15.90
2017-08-11T09:05:59.766Z,16.00
2017-08-11T09:08:27.869Z,16.00
2017-08-11T09:10:55.942Z,16.10
2017-08-11T09:13:24.039Z,16.20
2017-08-11T09:15:52.927Z,16.30
2017-08-11T09:18:21.037Z,16.40
2017-08-11T09:20:49.123Z,16.50
2017-08-11T09:23:17.222Z,16.50
2017-08-11T09:25:57.460Z,16.60
2017-08-11T09:28:37.631Z,16.50
2017-08-11T09:31:17.766Z,16.50
2017-08-11T09:33:57.718Z,16.50
2017-08-11T09:36:37.770Z,16.50
2017-08-11T09:39:06.223Z,16.50
2017-08-11T09:41:35.023Z,16.80
2017-08-11T09:44:03.134Z,16.90
2017-08-11T09:46:31.206Z,17.00
2017-08-11T09:48:59.332Z,16.90
2017-08-11T09:51:27.791Z,17.00
2017-08-11T09:53:55.864Z,17.00
2017-08-11T09:56:23.971Z,17.00
2017-08-11T09:58:52.042Z,17.00
2017-08-11T10:01:20.114Z,17.00
2017-08-11T10:03:48.207Z,17.00
2017-08-11T10:06:17.180Z,17.00
2017-08-11T10:08:45.210Z,17.10
2017-08-11T10:11:13.678Z,17.10
2017-08-11T10:13:42.543Z,16.90
2017-08-11T10:16:10.628Z,16.90
2017-08-11T10:18:38.715Z,16.90
2017-08-11T10:21:07.549Z,16.80
2017-08-11T10:23:35.642Z,16.80
2017-08-11T10:26:04.139Z,16.90
2017-08-11T10:28:32.214Z,16.60
2017-08-11T10:31:00.334Z,16.60
2017-08-11T10:33:28.434Z,16.60
2017-08-11T10:35:56.506Z,16.50
2017-08-11T10:38:24.579Z,16.50
2017-08-11T10:40:52.698Z,16.60
2017-08-11T10:43:20.807Z,16.50
2017-08-11T10:45:48.900Z,16.40
2017-08-11T10:48:16.974Z,16.40
2017-08-11T10:50:45.066Z,16.40
2017-08-11T10:53:13.178Z,16.50
2017-08-11T10:55:41.259Z,16.40
2017-08-11T10:58:09.358Z,16.40
2017-08-11T11:00:37.462Z,16.40
2017-08-11T11:03:05.534Z,16.40
2017-08-11T11:05:33.611Z,16.40
2017-08-11T11:08:01.702Z,16.50
2017-08-11T11:10:29.782Z,16.50
2017-08-11T11:12:58.222Z,16.50
2017-08-11T11:15:26.686Z,16.60
2017-08-11T11:17:54.870Z,16.60
2017-08-11T11:20:23.050Z,16.70
2017-08-11T11:22:51.123Z,16.70
2017-08-11T11:25:19.270Z,16.80
2017-08-11T11:27:47.354Z,16.80
2017-08-11T11:30:15.826Z,16.90
2017-08-11T11:32:44.010Z,16.80
2017-08-11T11:35:12.204Z,16.80
2017-08-11T11:37:40.358Z,16.80
2017-08-11T11:40:08.431Z,16.80
2017-08-11T11:42:36.602Z,17.10
2017-08-11T11:45:04.686Z,17.20
2017-08-11T11:47:32.783Z,17.20
2017-08-11T11:50:01.639Z,17.10
2017-08-11T11:52:29.815Z,17.10
2017-08-11T11:54:57.990Z,17.10
2017-08-11T11:57:26.455Z,17.10
2017-08-11T11:59:54.543Z,17.10
2017-08-11T12:02:22.715Z,17.00
2017-08-11T12:04:50.890Z,17.00
2017-08-11T12:07:19.062Z,17.00
2017-08-11T12:09:47.242Z,16.70
2017-08-11T12:12:15.839Z,16.80
2017-08-11T12:14:44.007Z,16.70
2017-08-11T12:17:12.114Z,16.70
2017-08-11T12:19:40.950Z,16.70
2017-08-11T12:22:09.022Z,16.70
2017-08-11T12:24:37.124Z,16.50
2017-08-11T12:27:05.203Z,16.60
2017-08-11T12:29:33.699Z,16.50
2017-08-11T12:32:02.535Z,16.40
2017-08-11T12:34:30.646Z,16.50
2017-08-11T12:36:58.742Z,16.40
2017-08-11T12:39:26.835Z,16.30
2017-08-11T12:41:54.919Z,16.30
2017-08-11T12:44:23.031Z,16.30
2017-08-11T12:46:51.106Z,16.30
2017-08-11T12:49:19.183Z,16.30
2017-08-11T12:51:48.060Z,16.40
2017-08-11T12:54:16.158Z,16.40
2017-08-11T12:56:44.251Z,16.50
2017-08-11T12:59:12.354Z,16.60
2017-08-11T13:01:40.429Z,16.60
2017-08-11T13:04:08.495Z,16.60
2017-08-11T13:06:37.014Z,16.60
2017-08-11T13:09:05.097Z,16.60
2017-08-11T13:11:33.938Z,16.60
2017-08-11T13:14:02.040Z,16.60
2017-08-11T13:16:30.509Z,16.50
2017-08-11T13:18:58.603Z,16.40
2017-08-11T13:21:26.691Z,16.40
2017-08-11T13:23:55.558Z,16.40
2017-08-11T13:26:23.623Z,16.60
2017-08-11T13:28:51.694Z,16.60
2017-08-11T13:31:19.794Z,16.70
2017-08-11T13:33:48.643Z,16.60
2017-08-11T13:36:16.847Z,16.70
2017-08-11T13:38:45.000Z,16.70
2017-08-11T13:41:13.166Z,16.70
2017-08-11T13:43:41.246Z,16.70
2017-08-11T13:46:09.323Z,16.70
2017-08-11T13:48:37.499Z,16.60
2017-08-11T13:51:05.578Z,16.60
2017-08-11T13:53:33.731Z,16.60
2017-08-11T13:56:01.907Z,16.40
2017-08-11T13:58:30.091Z,16.40
2017-08-11T14:00:58.263Z,16.40
2017-08-11T14:03:26.426Z,16.40
2017-08-11T14:05:54.613Z,16.40
2017-08-11T14:08:22.802Z,16.30
2017-08-11T14:10:50.952Z,16.30
2017-08-11T14:13:19.126Z,16.30
2017-08-11T14:15:47.300Z,16.30
2017-08-11T14:18:15.472Z,16.30
2017-08-11T14:20:43.647Z,16.20
2017-08-11T14:23:17.399Z,16.20
2017-08-11T14:25:46.259Z,16.20
2017-08-11T14:28:14.334Z,16.20
2017-08-11T14:30:42.434Z,16.20
2017-08-11T14:33:10.522Z,16.30
2017-08-11T14:35:39.042Z,16.40
2017-08-11T14:38:07.114Z,16.40
2017-08-11T14:40:35.186Z,16.20
2017-08-11T14:43:03.290Z,16.20
2017-08-11T14:45:31.357Z,16.10
2017-08-11T14:47:59.467Z,16.10
2017-08-11T14:50:27.542Z,16.10
2017-08-11T14:52:56.047Z,16.10
2017-08-11T14:55:24.167Z,16.10
2017-08-11T14:57:53.000Z,16.10
2017-08-11T15:00:21.070Z,16.10
2017-08-11T15:02:49.162Z,16.00
2017-08-11T15:05:17.258Z,16.00
2017-08-11T15:07:45.359Z,16.20
2017-08-11T15:10:13.446Z,16.10
2017-08-11T15:12:41.557Z,16.10
2017-08-11T15:15:11.467Z,16.30
2017-08-11T15:17:39.542Z,16.30
2017-08-11T15:20:07.610Z,16.30
2017-08-11T15:22:35.711Z,16.30
2017-08-11T15:25:03.783Z,16.20
2017-08-11T15:27:31.887Z,16.30
2017-08-11T15:29:59.959Z,16.30
2017-08-11T15:32:28.066Z,16.20
2017-08-11T15:34:56.150Z,16.30
2017-08-11T15:37:24.243Z,16.30
2017-08-11T15:39:52.352Z,16.30
2017-08-11T15:42:20.836Z,16.30
2017-08-11T15:44:48.902Z,16.30
2017-08-11T15:47:16.999Z,16.30
2017-08-11T15:49:45.094Z,16.30
2017-08-11T15:52:13.268Z,16.30
2017-08-11T15:54:41.438Z,16.30
2017-08-11T15:57:09.528Z,16.30
2017-08-11T15:59:37.643Z,16.20
2017-08-11T16:02:05.722Z,16.10
2017-08-11T16:04:33.955Z,16.20
2017-08-11T16:07:02.102Z,16.20
2017-08-11T16:09:30.194Z,16.10
2017-08-11T16:11:58.301Z,16.00
2017-08-11T16:14:26.398Z,16.00
2017-08-11T16:16:54.474Z,15.90
2017-08-11T16:19:22.579Z,15.90
2017-08-11T16:21:50.762Z,15.90
2017-08-11T16:24:18.834Z,15.90
2017-08-11T16:26:46.994Z,15.90
2017-08-11T16:29:15.178Z,16.00
2017-08-11T16:31:43.246Z,15.80
2017-08-11T16:34:11.753Z,15.90
2017-08-11T16:36:40.694Z,16.00
2017-08-11T16:39:09.231Z,15.90
2017-08-11T16:41:38.163Z,15.90
2017-08-11T16:44:06.687Z,15.80
2017-08-11T16:46:34.774Z,15.80
2017-08-11T16:49:03.632Z,15.80
2017-08-11T16:51:32.522Z,15.70
2017-08-11T16:54:00.630Z,15.70
2017-08-11T16:56:29.519Z,15.70
2017-08-11T16:58:58.484Z,15.60
2017-08-11T17:01:27.040Z,15.60
2017-08-11T17:03:55.135Z,15.60
2017-08-11T17:06:23.247Z,15.60
2017-08-11T17:08:52.207Z,15.60
2017-08-11T17:11:20.704Z,15.60
2017-08-11T17:13:49.600Z,15.60
2017-08-11T17:16:17.752Z,15.50
2017-08-11T17:18:45.834Z,15.50
2017-08-11T17:21:15.000Z,15.50
2017-08-11T17:23:43.194Z,15.50
2017-08-11T17:26:11.362Z,15.40
2017-08-11T17:28:39.519Z,15.40
2017-08-11T17:31:07.631Z,15.30
2017-08-11T17:33:35.716Z,15.30
2017-08-11T17:36:04.274Z,15.20
2017-08-11T17:38:32.334Z,15.20
2017-08-11T17:41:00.435Z,15.20
2017-08-11T17:43:29.334Z,15.10
2017-08-11T17:45:58.187Z,15.10
2017-08-11T17:48:26.299Z,15.00
2017-08-11T17:50:54.398Z,15.10
2017-08-11T17:53:22.487Z,15.00
2017-08-11T17:55:50.591Z,15.00
2017-08-11T17:58:18.698Z,15.10
2017-08-11T18:00:46.800Z,15.10
2017-08-11T18:03:15.440Z,15.20
2017-08-11T18:05:44.317Z,15.30
2017-08-11T18:08:12.435Z,15.30
2017-08-11T18:10:40.967Z,15.20
2017-08-11T18:13:09.058Z,15.30
2017-08-11T18:15:38.094Z,15.30
2017-08-11T18:18:06.199Z,15.30
2017-08-11T18:20:34.281Z,15.20
2017-08-11T18:23:02.386Z,15.20
2017-08-11T18:25:30.514Z,15.30
2017-08-11T18:27:58.624Z,15.30
2017-08-11T18:30:27.474Z,15.30
2017-08-11T18:32:55.651Z,15.30
2017-08-11T18:35:23.747Z,15.40
2017-08-11T18:37:52.719Z,15.40
2017-08-11T18:40:20.891Z,15.40
2017-08-11T18:42:49.027Z,15.30
2017-08-11T18:45:17.135Z,15.40
2017-08-11T18:47:45.310Z,15.40
2017-08-11T18:50:13.423Z,15.30
2017-08-11T18:52:42.379Z,15.20
2017-08-11T18:55:10.554Z,15.20
2017-08-11T18:57:38.762Z,15.20
2017-08-11T19:00:07.730Z,15.10
2017-08-11T19:02:35.902Z,15.10
2017-08-11T19:05:04.026Z,14.90
2017-08-11T19:07:32.151Z,14.90
2017-08-11T19:10:00.316Z,15.00
2017-08-11T19:12:28.495Z,15.00
2017-08-11T19:14:58.176Z,14.90
2017-08-11T19:17:26.374Z,14.90
2017-08-11T19:19:54.470Z,15.00
2017-08-11T19:22:22.570Z,15.00
2017-08-11T19:24:51.107Z,15.00
2017-08-11T19:27:19.259Z,15.00
2017-08-11T19:29:47.334Z,15.00
2017-08-11T19:32:15.526Z,15.00
2017-08-11T19:34:43.694Z,15.00
2017-08-11T19:37:11.789Z,15.10
2017-08-11T19:39:39.943Z,15.10
2017-08-11T19:42:08.116Z,15.20
2017-08-11T19:44:36.224Z,15.10
2017-08-11T19:47:05.086Z,14.90
2017-08-11T19:49:33.196Z,14.90
2017-08-11T19:52:01.318Z,14.80
2017-08-11T19:54:29.415Z,14.80
2017-08-11T19:56:58.295Z,14.80
2017-08-11T19:59:26.390Z,14.80
2017-08-11T20:01:55.278Z,14.80
2017-08-11T20:04:24.134Z,14.70
2017-08-11T20:06:52.252Z,14.70
2017-08-11T20:09:20.397Z,14.60
2017-08-11T20:11:48.486Z,14.60
2017-08-11T20:14:16.583Z,14.60
2017-08-11T20:16:44.716Z,14.60
2017-08-11T20:19:12.866Z,14.60
2017-08-11T20:21:40.958Z,14.50
2017-08-11T20:24:09.046Z,14.60
2017-08-11T20:26:37.203Z,14.50
2017-08-11T20:29:05.378Z,14.50
2017-08-11T20:31:33.483Z,14.50
2017-08-11T20:34:02.355Z,14.50
2017-08-11T20:36:31.226Z,14.50
2017-08-11T20:38:59.402Z,14.50
2017-08-11T20:41:28.002Z,14.50
2017-08-11T20:43:56.106Z,14.50
2017-08-11T20:46:24.335Z,14.50
2017-08-11T20:48:52.609Z,14.50
2017-08-11T20:51:20.782Z,14.50
2017-08-11T20:53:48.943Z,14.50
2017-08-11T20:56:17.327Z,14.40
2017-08-11T20:58:45.434Z,14.50
2017-08-11T21:01:14.310Z,14.40
2017-08-11T21:03:43.333Z,14.40
2017-08-11T21:06:11.883Z,14.40
2017-08-11T21:08:40.054Z,14.40
2017-08-11T21:11:08.233Z,14.40
2017-08-11T21:13:36.403Z,14.40
2017-08-11T21:16:04.490Z,14.50
2017-08-11T21:18:33.058Z,14.40
2017-08-11T21:21:01.234Z,14.40
2017-08-11T21:23:29.351Z,14.40
2017-08-11T21:25:57.488Z,14.40
2017-08-11T21:28:25.602Z,14.40
2017-08-11T21:30:53.723Z,14.40
2017-08-11T21:33:21.898Z,14.40
2017-08-11T21:35:50.079Z,14.40
2017-08-11T21:38:18.282Z,14.40
2017-08-11T21:40:47.153Z,14.30
2017-08-11T21:43:15.807Z,14.30
2017-08-11T21:45:43.875Z,14.30
2017-08-11T21:48:11.983Z,14.30
2017-08-11T21:50:40.142Z,14.30
2017-08-11T21:53:08.318Z,14.30
2017-08-11T21:55:36.494Z,14.30
2017-08-11T21:58:04.594Z,14.30
2017-08-11T22:00:33.554Z,14.30
2017-08-11T22:03:01.817Z,14.30
2017-08-11T22:05:29.887Z,14.30
2017-08-11T22:07:57.994Z,14.30
2017-08-11T22:10:26.123Z,14.30
2017-08-11T22:12:55.023Z,14.30
2017-08-11T22:15:23.069Z,14.20
2017-08-11T22:17:51.175Z,14.30
2017-08-11T22:20:20.063Z,14.20
2017-08-11T22:22:49.052Z,14.20
2017-08-11T22:25:17.111Z,14.20
2017-08-11T22:27:45.195Z,14.30
2017-08-11T22:30:13.695Z,14.30
2017-08-11T22:32:42.570Z,14.30
2017-08-11T22:35:10.678Z,14.20
2017-08-11T22:37:39.190Z,14.20
2017-08-11T22:40:07.298Z,14.30
2017-08-11T22:42:36.151Z,14.30
2017-08-11T22:45:04.262Z,14.30
2017-08-11T22:47:32.356Z,14.30
2017-08-11T22:50:00.866Z,14.30
2017-08-11T22:52:28.951Z,14.30
2017-08-11T22:54:57.059Z,14.30
2017-08-11T22:57:25.155Z,14.30
2017-08-11T22:59:53.263Z,14.30
2017-08-11T23:02:21.390Z,14.20
2017-08-11T23:04:49.490Z,14.20
2017-08-11T23:07:17.568Z,14.20
2017-08-11T23:09:46.476Z,14.30
2017-08-11T23:12:14.944Z,14.30
2017-08-11T23:14:43.824Z,14.30
2017-08-11T23:17:12.678Z,14.30
2017-08-11T23:19:40.791Z,14.30
2017-08-11T23:22:09.643Z,14.30
2017-08-11T23:24:37.762Z,14.30
2017-08-11T23:27:06.252Z,14.30
2017-08-11T23:29:35.102Z,14.30
2017-08-11T23:32:03.214Z,14.30
2017-08-11T23:34:31.326Z,14.30
2017-08-11T23:36:59.431Z,14.30
2017-08-11T23:39:27.559Z,14.30
2017-08-11T23:41:55.646Z,14.30
2017-08-11T23:44:23.740Z,14.30
2017-08-11T23:46:51.867Z,14.30
2017-08-11T23:49:20.729Z,14.30
2017-08-11T23:51:49.699Z,14.30
2017-08-11T23:54:18.277Z,14.30
2017-08-11T23:56:46.363Z,14.30
2017-08-11T23:59:14.450Z,14.30
